Hauptseite
METAR-TAF:

METAR-TAF

Flughäfen :

Yap, Yap Island, Mikronesien

Breite: 09-29N, Länge: 138-05E, Höhe: 28 m

Beobachtung

Neuester Wetterbericht von vor 12 Minuten, um 18:53 UTC
Wind 3 kt aus unterschiedlichen Richtungen
Temperatur 26°C
Luftfeuchtigkeit 94%
Luftdruck 1010 hPa
Sichtweite: 19.3 km
Leicht bewölkt in der Höhe von 1600 ft
Durchbrochene Bewölkung in der Höhe von 30000 ft

METAR: PTYA 291853Z VRB03KT 12SM FEW016 BKN300 26/25 A2983 RMK SLP101 T02640252

Zeit: 05:05 (19:05 UTC)

Prognose

Neuester Wetterbericht von vor 1 Stunde und 40 Minuten, um 17:25 UTC
Gültige Prognose vom 29 um 18 UTC bis 30 um 18 UTC
Wind 7 kt aus Ost
Sichtweite: 10 km
Leicht bewölkt in der Höhe von 1600 ft
Aufgelockert bewölkt in der Höhe von 13000 ft
Schauer in der Nähe

TAF: PTYA 291725Z 2918/3018 08007KT P6SM VCSH FEW016 SCT130

Wetterbeobachtungen und Prognosen von mehr als 4000 Flughäfen (METAR und TAF Bericht).

Die verfügbaren Stationen werden durch gelbe und rote Markierungen auf der Karte dargestellt.

Führen Sie die Maus auf sie, um den Namen der Station zu sehen.

Darauf klicken, um die Beobachtung von Wetterbeobachtungen und Prognosen zu sehen.

Um die Karte zu ändern : klicken Sie auf den grünen Tasten mit einem schwarzen Kreuz Zum Vergrößern, auf den grünen Button mit einem Gedankenstrich zu verkleinern, oder auf die grünen Pfeile für benachbarte Karten.


METAR-TAF: